Paxi — CQIA5 — position and weather

sailwx.info

Track history (hours):
 
Tides and Currents Weather Stations Pressure Air Temp Water Temp Dewpoint Dewpoint Depression Visibility Wind Speed Wind Dir Waves Ship Positions

Paxi

Last reported at 2018-Jul-18 18:31 UTC. Time now 2018-Jul-18 18:36 UTC.
Position N 50°06' W 002°15'.

Length 170 m; draft 5.5 m.

Type: Cargo ship. MMSI: 255805905.

Date/timePositionNaut miles runAvg speedWind from/ knotsBaromVisibWave heightAir tempDewpointWater temp
2018-Jul-18 18:31N 50°06' W 002°15'815.1
2018-Jul-18 18:01N 50°08' W 002°04'815.3
2018-Jul-18 17:30N 50°10' W 001°52'714.9
2018-Jul-18 17:00N 50°12' W 001°41'714.3
2018-Jul-18 16:30N 50°14' W 001°30'713.6
2018-Jul-18 16:00N 50°16' W 001°20'612.9
2018-Jul-18 15:30N 50°18' W 001°10'611.9
2018-Jul-18 15:00N 50°19' W 001°01'510.9
2018-Jul-18 14:30N 50°21' W 000°53'10 9.5
2018-Jul-18 13:29N 50°23' W 000°38'4 9.1
2018-Jul-18 13:00N 50°25' W 000°32'5 9.1
2018-Jul-18 12:30N 50°26' W 000°25'5 9.5
2018-Jul-18 12:00N 50°27' W 000°17'510.0
2018-Jul-18 11:30N 50°28' W 000°10'1110.8
2018-Jul-18 10:27N 50°31' E 000°07'511.7
2018-Jul-18 10:00N 50°33' E 000°15'612.4
2018-Jul-18 09:30N 50°34' E 000°24'613.0
2018-Jul-18 09:00N 50°36' E 000°34'713.1
2018-Jul-18 08:30N 50°40' E 000°42'713.2
2018-Jul-18 08:00N 50°44' E 000°50'612.7
2018-Jul-18 07:30N 50°48' E 000°58'612.2
2018-Jul-18 07:00N 50°52' E 001°06'611.8
2018-Jul-18 06:30N 50°56' E 001°13'611.1
2018-Jul-18 06:00N 50°60' E 001°19'510.2
2018-Jul-18 05:30N 51°03' E 001°26'5 9.4
2018-Jul-18 05:00N 51°06' E 001°31'4 8.4
2018-Jul-18 04:30N 51°08' E 001°37'4 8.5
2018-Jul-18 04:00N 51°11' E 001°42'5 9.0
2018-Jul-18 03:30N 51°15' E 001°46'5 9.7
2018-Jul-18 03:00N 51°19' E 001°50'510.6
2018-Jul-18 02:30N 51°23' E 001°54'611.4
2018-Jul-18 02:00N 51°28' E 002°00'612.3
2018-Jul-18 01:30N 51°32' E 002°07'712.9
2018-Jul-18 01:00N 51°37' E 002°14'713.5
2018-Jul-18 00:30N 51°42' E 002°22'713.4
2018-Jul-17 23:59N 51°46' E 002°30'511.3
2018-Jul-17 23:30N 51°48' E 002°39'611.7
2018-Jul-17 23:00N 51°47' E 002°48'612.2
2018-Jul-17 22:30N 51°48' E 002°57'612.1
2018-Jul-17 22:00N 51°50' E 003°07'510.3
2018-Jul-17 21:30N 51°48' E 003°14'510.6
2018-Jul-17 21:00N 51°49' E 003°22'1 1.7
2018-Jul-17 20:25N 51°49' E 003°24'0 0.0
2018-Jul-17 19:58N 51°49' E 003°24'0 0.0
2018-Jul-17 19:28N 51°49' E 003°24'0 0.0
2018-Jul-17 18:58N 51°49' E 003°24'0 0.0
2018-Jul-17 18:28N 51°49' E 003°24'0 0.0
2018-Jul-17 17:58N 51°49' E 003°24'0 0.0
2018-Jul-17 17:22N 51°49' E 003°24'0 0.0
2018-Jul-17 16:58N 51°49' E 003°24'0 0.0
2018-Jul-17 16:16N 51°49' E 003°24'0 0.0
2018-Jul-17 15:55N 51°49' E 003°24'0 0.0
2018-Jul-17 15:28N 51°49' E 003°24'0 0.0
2018-Jul-17 14:58N 51°49' E 003°24'0 0.1
2018-Jul-17 14:16N 51°49' E 003°24'0 0.2
2018-Jul-17 13:58N 51°49' E 003°24'0 0.1
2018-Jul-17 12:52N 51°49' E 003°24'0 0.0
2018-Jul-17 12:16N 51°49' E 003°24'0 0.0
2018-Jul-17 11:58N 51°49' E 003°23'0 0.0
2018-Jul-17 11:25N 51°49' E 003°23'0 0.1
2018-Jul-17 10:22N 51°49' E 003°24'0 0.2
2018-Jul-17 09:58N 51°49' E 003°24'0 0.0
2018-Jul-17 07:10N 51°49' E 003°24'0 0.0
2018-Jul-17 06:52N 51°49' E 003°24'0 0.0
2018-Jul-17 06:28N 51°49' E 003°24'0 0.0
2018-Jul-17 05:55N 51°49' E 003°24'0 0.0
2018-Jul-17 05:22N 51°49' E 003°24'0 0.0
2018-Jul-17 03:10N 51°49' E 003°24'0 0.0
2018-Jul-17 02:43N 51°49' E 003°24'0 0.2
2018-Jul-17 02:16N 51°49' E 003°24'0 0.5
2018-Jul-17 01:58N 51°49' E 003°23'0 0.0
2018-Jul-17 01:25N 51°49' E 003°23'0 0.0
2018-Jul-17 00:58N 51°49' E 003°23'0 0.0
2018-Jul-17 00:10N 51°49' E 003°23'0 0.0
2018-Jul-16 23:22N 51°49' E 003°23'0 0.0
2018-Jul-16 22:55N 51°49' E 003°23'0 0.0
2018-Jul-16 22:28N 51°49' E 003°23'0 0.0
2018-Jul-16 21:58N 51°49' E 003°23'0 0.1
2018-Jul-16 21:13N 51°49' E 003°23'0 0.1
2018-Jul-16 20:55N 51°49' E 003°23'0 0.0
2018-Jul-16 20:22N 51°49' E 003°24'0 0.0
2018-Jul-16 19:58N 51°49' E 003°24'0 0.0
2018-Jul-16 19:28N 51°49' E 003°24'0 0.0
2018-Jul-16 18:55N 51°49' E 003°24'0 0.0
2018-Jul-16 18:25N 51°49' E 003°24'0 0.0
2018-Jul-16 17:55N 51°49' E 003°24'0 0.0
2018-Jul-16 17:28N 51°49' E 003°24'0 0.0
2018-Jul-16 16:55N 51°49' E 003°24'0 0.0
2018-Jul-16 16:28N 51°49' E 003°24'0 0.0
2018-Jul-16 15:58N 51°49' E 003°24'0 0.0
2018-Jul-16 15:28N 51°49' E 003°24'0 0.0
2018-Jul-16 14:52N 51°49' E 003°24'0 0.2
2018-Jul-16 14:22N 51°49' E 003°24'0 0.2
2018-Jul-16 13:58N 51°49' E 003°24'0 0.0
2018-Jul-16 13:25N 51°49' E 003°23'0 0.0
2018-Jul-16 12:58N 51°49' E 003°23'0 0.0
2018-Jul-16 12:28N 51°49' E 003°23'0 0.0
2018-Jul-16 11:55N 51°49' E 003°23'0 0.0
2018-Jul-16 11:28N 51°49' E 003°23'0 0.0
2018-Jul-16 10:58N 51°49' E 003°23'0 0.0
2018-Jul-16 10:28N 51°49' E 003°23'0 0.0
2018-Jul-16 07:28N 51°49' E 003°23'0 0.1
2018-Jul-16 06:52N 51°49' E 003°24'0 0.1
2018-Jul-16 06:28N 51°49' E 003°24'0 0.0
2018-Jul-16 05:55N 51°49' E 003°24'0 0.0
2018-Jul-16 05:28N 51°49' E 003°24'0 0.0
2018-Jul-16 04:58N 51°49' E 003°24'0 0.0
2018-Jul-16 04:28N 51°49' E 003°24'0 0.0
2018-Jul-16 03:58N 51°49' E 003°24'0 0.0
2018-Jul-16 03:28N 51°49' E 003°24'0 0.0
2018-Jul-16 02:58N 51°49' E 003°24'0 0.0
2018-Jul-16 02:28N 51°49' E 003°24'0 0.1
2018-Jul-16 01:58N 51°49' E 003°24'0 0.2
2018-Jul-16 01:28N 51°49' E 003°24'0 0.0
2018-Jul-16 00:55N 51°49' E 003°24'0 0.0
2018-Jul-16 00:28N 51°49' E 003°23'0 0.0
2018-Jul-15 23:52N 51°49' E 003°23'0 0.0
2018-Jul-15 23:13N 51°49' E 003°23'0 0.0
2018-Jul-15 22:58N 51°49' E 003°23'0 0.0
2018-Jul-15 22:25N 51°49' E 003°23'0 0.0
2018-Jul-15 21:46N 51°49' E 003°23'0 0.0
2018-Jul-15 21:22N 51°49' E 003°23'0 0.0
2018-Jul-15 20:37N 51°49' E 003°23'0 0.0
2018-Jul-15 20:25N 51°49' E 003°23'0 0.0
2018-Jul-15 19:55N 51°49' E 003°23'0 0.1
2018-Jul-15 19:28N 51°49' E 003°23'0 0.1
2018-Jul-15 18:58N 51°49' E 003°23'0 0.1
2018-Jul-15 18:28N 51°49' E 003°24'0 0.0
2018-Jul-15 17:58N 51°49' E 003°24'0 0.0
2018-Jul-15 17:28N 51°49' E 003°24'0 0.0
2018-Jul-15 16:58N 51°49' E 003°24'0 0.0
2018-Jul-15 16:28N 51°49' E 003°24'0 0.0
2018-Jul-15 15:58N 51°49' E 003°24'0 0.0
2018-Jul-15 15:25N 51°49' E 003°24'0 0.0
2018-Jul-15 14:58N 51°49' E 003°24'0 0.0
2018-Jul-15 14:25N 51°49' E 003°24'0 0.1
2018-Jul-15 13:58N 51°49' E 003°24'0 0.3
2018-Jul-15 13:28N 51°49' E 003°24'0 0.1
2018-Jul-15 12:43N 51°49' E 003°23'0 0.0
2018-Jul-15 12:19N 51°49' E 003°23'0 0.0
2018-Jul-15 11:58N 51°49' E 003°23'0 0.0
2018-Jul-15 11:28N 51°49' E 003°23'0 0.0
2018-Jul-15 10:58N 51°49' E 003°23'0 0.0
2018-Jul-15 10:28N 51°49' E 003°23'0 0.0
2018-Jul-15 09:58N 51°49' E 003°23'0 0.0
2018-Jul-15 09:28N 51°49' E 003°23'0 0.0
2018-Jul-15 08:58N 51°49' E 003°23'0 0.0
2018-Jul-15 08:28N 51°49' E 003°23'0 0.0
2018-Jul-15 07:58N 51°49' E 003°23'0 0.0
2018-Jul-15 07:28N 51°49' E 003°23'0 0.1
2018-Jul-15 06:58N 51°49' E 003°23'0 0.1
2018-Jul-15 06:28N 51°49' E 003°23'0 0.1
2018-Jul-15 05:58N 51°49' E 003°23'0 0.1
2018-Jul-15 05:28N 51°49' E 003°24'0 0.0
2018-Jul-15 04:58N 51°49' E 003°24'0 0.0
2018-Jul-15 04:25N 51°49' E 003°24'0 0.0
2018-Jul-15 03:58N 51°49' E 003°24'0 0.0
2018-Jul-15 03:25N 51°49' E 003°24'0 0.0
2018-Jul-15 02:58N 51°49' E 003°24'0 0.0
2018-Jul-15 02:28N 51°49' E 003°24'0 0.0
2018-Jul-15 01:55N 51°49' E 003°24'0 0.1
2018-Jul-15 01:28N 51°49' E 003°24'0 0.3
2018-Jul-15 00:46N 51°49' E 003°23'0 0.1
2018-Jul-15 00:25N 51°49' E 003°23'0 0.0
2018-Jul-14 23:58N 51°49' E 003°23'0 0.0
2018-Jul-14 23:19N 51°49' E 003°23'0 0.0
2018-Jul-14 22:58N 51°49' E 003°23'0 0.0
2018-Jul-14 22:22N 51°49' E 003°23'0 0.0
2018-Jul-14 21:58N 51°49' E 003°23'0 0.0
2018-Jul-14 21:22N 51°49' E 003°23'0 0.0
2018-Jul-14 20:58N 51°49' E 003°23'0 0.0
2018-Jul-14 20:28N 51°49' E 003°23'0 0.0
2018-Jul-14 19:58N 51°49' E 003°23'0 0.0
2018-Jul-14 19:28N 51°49' E 003°23'0 0.0
2018-Jul-14 18:58N 51°49' E 003°23'0 0.1
2018-Jul-14 18:28N 51°49' E 003°23'0 0.1
2018-Jul-14 17:58N 51°49' E 003°23'0 0.1
2018-Jul-14 17:28N 51°49' E 003°23'0 0.2
2018-Jul-14 16:58N 51°49' E 003°24'0 0.0
2018-Jul-14 16:28N 51°49' E 003°24'0 0.0
2018-Jul-14 15:59N 51°49' E 003°24'0 0.0
2018-Jul-14 15:25N 51°49' E 003°24'0 0.0
2018-Jul-14 14:55N 51°49' E 003°24'0 0.0
2018-Jul-14 14:28N 51°49' E 003°24'0 0.0
2018-Jul-14 13:28N 51°49' E 003°24'0 0.2
2018-Jul-14 12:58N 51°49' E 003°24'0 0.1
2018-Jul-14 12:28N 51°49' E 003°24'0 0.0
2018-Jul-14 11:55N 51°49' E 003°23'0 0.0
2018-Jul-14 11:28N 51°49' E 003°23'0 0.0
2018-Jul-14 10:52N 51°49' E 003°23'0 0.0
2018-Jul-14 10:19N 51°49' E 003°23'0 0.0
2018-Jul-14 09:58N 51°49' E 003°23'0 0.0
2018-Jul-14 09:28N 51°49' E 003°23'0 0.0
2018-Jul-14 08:58N 51°49' E 003°23'0 0.0
2018-Jul-14 08:19N 51°49' E 003°23'0 0.1
2018-Jul-14 07:55N 51°49' E 003°23'0 0.0
2018-Jul-14 06:52N 51°49' E 003°23'0 0.1
2018-Jul-14 06:01N 51°49' E 003°23'0 0.1
2018-Jul-14 05:31N 51°49' E 003°23'0 0.1
2018-Jul-14 05:22N 51°49' E 003°23'0 0.1
2018-Jul-14 04:55N 51°49' E 003°23'0 0.1
2018-Jul-14 04:28N 51°49' E 003°23'0 0.1
2018-Jul-14 03:58N 51°49' E 003°24'0 0.0
2018-Jul-14 03:28N 51°49' E 003°24'0 0.0
2018-Jul-14 02:55N 51°49' E 003°24'0 0.0
2018-Jul-14 02:13N 51°49' E 003°24'0 0.0
2018-Jul-14 01:52N 51°49' E 003°24'0 0.0
2018-Jul-14 01:22N 51°49' E 003°24'0 0.1
2018-Jul-14 00:55N 51°49' E 003°24'0 0.2
2018-Jul-14 00:10N 51°49' E 003°24'0 0.1
2018-Jul-13 23:58N 51°49' E 003°24'0 0.0
2018-Jul-13 23:25N 51°49' E 003°23'0 0.0
2018-Jul-13 22:10N 51°49' E 003°23'0 0.0
2018-Jul-13 21:58N 51°49' E 003°23'0 0.0
2018-Jul-13 21:25N 51°49' E 003°23'0 0.0
2018-Jul-13 20:52N 51°49' E 003°23'0 0.0
2018-Jul-13 20:28N 51°49' E 003°23'0 0.1
2018-Jul-13 19:50N 51°49' E 003°23'1 1.8
2018-Jul-13 19:31N 51°49' E 003°23'3 5.6
2018-Jul-13 19:00N 51°47' E 003°19'4 8.8
2018-Jul-13 18:30N 51°43' E 003°16'611.0
2018-Jul-13 18:00N 51°39' E 003°21'612.3
2018-Jul-13 17:30N 51°33' E 003°25'612.1
2018-Jul-13 17:00N 51°28' E 003°31'510.9
2018-Jul-13 16:31N 51°27' E 003°39'510.4
2018-Jul-13 16:00N 51°24' E 003°46'0 0.9
2018-Jul-13 15:29N 51°23' E 003°46'0 0.2
2018-Jul-13 14:59N 51°23' E 003°46'0 0.1
2018-Jul-13 13:59N 51°23' E 003°47'0 0.0
2018-Jul-13 13:29N 51°23' E 003°47'0 0.0
2018-Jul-13 12:59N 51°23' E 003°47'0 0.0
2018-Jul-13 12:29N 51°23' E 003°47'0 0.0
2018-Jul-13 11:59N 51°23' E 003°47'0 0.0
2018-Jul-13 11:29N 51°23' E 003°47'0 0.0
2018-Jul-13 10:59N 51°23' E 003°47'0 0.0
2018-Jul-13 10:29N 51°23' E 003°47'0 0.0
2018-Jul-13 09:59N 51°23' E 003°47'0 0.0
2018-Jul-13 09:29N 51°23' E 003°47'0 0.0
2018-Jul-13 08:59N 51°23' E 003°47'0 0.2
2018-Jul-13 08:29N 51°23' E 003°46'0 0.2
2018-Jul-13 07:59N 51°23' E 003°46'0 0.0
2018-Jul-13 07:29N 51°23' E 003°46'0 0.0
2018-Jul-13 06:59N 51°23' E 003°46'0 0.0
2018-Jul-13 06:29N 51°23' E 003°46'0 0.0
2018-Jul-13 05:59N 51°23' E 003°46'0 0.0
2018-Jul-13 05:29N 51°23' E 003°46'0 0.0
2018-Jul-13 04:59N 51°23' E 003°46'0 0.0
2018-Jul-13 04:29N 51°23' E 003°46'0 0.0
2018-Jul-13 03:59N 51°23' E 003°46'0 0.0
2018-Jul-13 03:29N 51°23' E 003°46'0 0.0
2018-Jul-13 02:59N 51°23' E 003°46'0 0.1
2018-Jul-13 02:29N 51°23' E 003°46'0 0.2
2018-Jul-13 01:59N 51°23' E 003°47'0 0.1
2018-Jul-13 01:29N 51°23' E 003°47'0 0.0
2018-Jul-13 00:59N 51°23' E 003°47'0 0.0
2018-Jul-13 00:29N 51°23' E 003°47'0 0.0
2018-Jul-12 23:59N 51°23' E 003°47'0 0.0
2018-Jul-12 23:29N 51°23' E 003°47'0 0.0
2018-Jul-12 22:59N 51°23' E 003°47'0 0.0
2018-Jul-12 22:29N 51°23' E 003°47'0 0.0
2018-Jul-12 21:59N 51°23' E 003°47'0 0.0
2018-Jul-12 21:29N 51°23' E 003°47'0 0.0
2018-Jul-12 20:59N 51°23' E 003°47'0 0.0
2018-Jul-12 20:29N 51°23' E 003°47'0 0.1
2018-Jul-12 19:59N 51°23' E 003°46'0 0.1
2018-Jul-12 19:29N 51°23' E 003°46'0 0.1
2018-Jul-12 18:59N 51°23' E 003°46'0 0.0
2018-Jul-12 18:29N 51°23' E 003°46'0 0.0
2018-Jul-12 17:59N 51°23' E 003°46'0 0.0
2018-Jul-12 17:29N 51°23' E 003°46'0 0.0
2018-Jul-12 16:59N 51°23' E 003°46'0 0.0
2018-Jul-12 16:29N 51°23' E 003°46'0 0.0
2018-Jul-12 15:59N 51°23' E 003°46'0 0.0
2018-Jul-12 15:29N 51°23' E 003°46'0 0.0
2018-Jul-12 14:59N 51°23' E 003°46'0 0.0
2018-Jul-12 14:29N 51°23' E 003°46'0 0.0
2018-Jul-12 14:00N 51°23' E 003°46'2 3.4
2018-Jul-12 13:30N 51°24' E 003°44'3 5.7
2018-Jul-12 13:00N 51°26' E 003°41'4 7.3
2018-Jul-12 12:30N 51°26' E 003°35'4 8.2
2018-Jul-12 12:00N 51°29' E 003°30'4 8.6
2018-Jul-12 11:30N 51°32' E 003°25'4 7.1
2018-Jul-12 11:00N 51°35' E 003°23'4 7.8
2018-Jul-12 10:30N 51°39' E 003°20'3 6.9
2018-Jul-12 10:00N 51°42' E 003°17'511.0
2018-Jul-12 09:30N 51°47' E 003°14'2 4.7
2018-Jul-12 09:00N 51°48' E 003°17'3 6.0
2018-Jul-12 08:30N 51°49' E 003°22'0 0.6
2018-Jul-12 08:00N 51°49' E 003°22'0 0.0
2018-Jul-12 07:27N 51°49' E 003°22'0 0.0
2018-Jul-12 06:57N 51°49' E 003°22'0 0.0
2018-Jul-12 06:27N 51°49' E 003°22'0 0.0
2018-Jul-12 06:00N 51°49' E 003°22'0 0.0
2018-Jul-12 05:30N 51°49' E 003°22'0 0.0
2018-Jul-12 05:00N 51°49' E 003°22'0 0.0
2018-Jul-12 04:30N 51°49' E 003°22'0 0.0
2018-Jul-12 03:42N 51°49' E 003°22'0 0.1
2018-Jul-12 03:30N 51°49' E 003°22'0 0.2
2018-Jul-12 02:54N 51°49' E 003°22'0 0.0
2018-Jul-11 23:54N 51°49' E 003°22'0 0.1
2018-Jul-11 23:30N 51°49' E 003°22'0 0.1
2018-Jul-11 23:00N 51°49' E 003°22'0 0.1
2018-Jul-11 22:30N 51°49' E 003°22'0 0.0
2018-Jul-11 22:00N 51°49' E 003°22'0 0.0
2018-Jul-11 21:27N 51°49' E 003°22'0 0.0
2018-Jul-11 20:54N 51°49' E 003°22'0 0.0
2018-Jul-11 20:30N 51°49' E 003°22'0 0.0
2018-Jul-11 20:00N 51°49' E 003°22'0 0.0
2018-Jul-11 19:30N 51°49' E 003°22'0 0.0
2018-Jul-11 19:00N 51°49' E 003°22'0 0.0
2018-Jul-11 18:30N 51°49' E 003°22'0 0.0
2018-Jul-11 18:00N 51°49' E 003°22'0 0.0
2018-Jul-11 17:30N 51°49' E 003°22'0 0.0
2018-Jul-11 17:00N 51°49' E 003°22'0 0.0
2018-Jul-11 16:30N 51°49' E 003°22'0 0.0
2018-Jul-11 16:00N 51°49' E 003°22'0 0.0
2018-Jul-11 15:30N 51°49' E 003°22'0 0.0
2018-Jul-11 15:00N 51°49' E 003°22'0 0.1
2018-Jul-11 14:24N 51°49' E 003°22'0 0.1
2018-Jul-11 14:00N 51°49' E 003°22'0 0.1
2018-Jul-11 13:30N 51°49' E 003°22'0 0.0
2018-Jul-11 12:57N 51°49' E 003°22'0 0.0
2018-Jul-11 12:06N 51°49' E 003°22'0 0.0
2018-Jul-11 11:57N 51°49' E 003°22'0 0.0
2018-Jul-11 11:27N 51°49' E 003°22'0 0.1
2018-Jul-11 11:00N 51°49' E 003°22'0 0.1
2018-Jul-11 10:15N 51°49' E 003°22'0 0.1
2018-Jul-11 09:03N 51°49' E 003°22'0 0.2
2018-Jul-11 09:00N 51°49' E 003°22'0 0.0
2018-Jul-11 08:12N 51°49' E 003°22'0 0.0
2018-Jul-11 07:57N 51°49' E 003°22'0 0.0
2018-Jul-11 07:12N 51°49' E 003°22'0 0.0
2018-Jul-11 05:45N 51°49' E 003°22'0 0.0
2018-Jul-11 05:27N 51°49' E 003°22'0 0.0
2018-Jul-11 05:00N 51°49' E 003°22'0 0.0
2018-Jul-11 04:27N 51°49' E 003°22'0 0.0
2018-Jul-11 03:15N 51°49' E 003°22'0 0.0
2018-Jul-11 02:54N 51°49' E 003°22'0 0.1
2018-Jul-11 02:12N 51°49' E 003°22'0 0.0
2018-Jul-11 01:48N 51°49' E 003°22'0 0.0
2018-Jul-11 01:30N 51°49' E 003°22'0 0.0
2018-Jul-11 00:00N 51°49' E 003°22'0 0.0
2018-Jul-10 23:24N 51°49' E 003°22'0 0.0
2018-Jul-10 22:57N 51°49' E 003°22'0 0.0
2018-Jul-10 20:48N 51°49' E 003°22'0 0.0
2018-Jul-10 20:24N 51°49' E 003°22'0 0.1
2018-Jul-10 19:57N 51°49' E 003°22'0 0.0
2018-Jul-10 18:18N 51°49' E 003°22'0 0.0
2018-Jul-10 17:57N 51°49' E 003°22'0 0.0
2018-Jul-10 16:24N 51°49' E 003°22'0 0.0
2018-Jul-10 15:42N 51°49' E 003°22'0 0.1
2018-Jul-10 15:30N 51°49' E 003°22'0 0.0
2018-Jul-10 14:09N 51°49' E 003°22'0 0.2
2018-Jul-10 14:00N 51°49' E 003°22'0 0.0
2018-Jul-10 12:12N 51°49' E 003°22'0 0.0
2018-Jul-10 11:54N 51°49' E 003°22'0 0.0
2018-Jul-10 11:27N 51°49' E 003°22'0 0.0
2018-Jul-10 11:00N 51°49' E 003°22'0 0.0
2018-Jul-10 09:57N 51°49' E 003°22'0 0.1
2018-Jul-10 07:57N 51°49' E 003°22'0 0.0
2018-Jul-10 07:18N 51°49' E 003°22'0 0.0
2018-Jul-10 06:51N 51°49' E 003°22'0 0.0
2018-Jul-10 06:03N 51°49' E 003°22'0 0.1
2018-Jul-10 05:57N 51°49' E 003°22'0 0.0
2018-Jul-10 05:30N 51°49' E 003°22'0 0.0
2018-Jul-10 04:54N 51°49' E 003°22'0 0.0
2018-Jul-10 04:27N 51°49' E 003°22'0 0.0
2018-Jul-10 03:51N 51°49' E 003°22'0 0.0
2018-Jul-10 03:30N 51°49' E 003°22'0 0.0
2018-Jul-10 02:30N 51°49' E 003°22'0 0.0
2018-Jul-10 01:51N 51°49' E 003°22'0 0.1
2018-Jul-10 01:27N 51°49' E 003°22'0 0.0
2018-Jul-10 00:24N 51°49' E 003°22'0 0.0
2018-Jul-10 00:00N 51°49' E 003°22'0 0.1
2018-Jul-09 23:18N 51°49' E 003°22'0 0.0
2018-Jul-09 22:54N 51°49' E 003°22'0 0.0
2018-Jul-09 22:27N 51°49' E 003°22'0 0.0
2018-Jul-09 20:36N 51°49' E 003°22'0 0.2
2018-Jul-09 20:30N 51°49' E 003°22'0 0.0
2018-Jul-09 16:54N 51°49' E 003°22'0 0.0
2018-Jul-09 16:24N 51°49' E 003°22'0 0.0
2018-Jul-09 15:57N 51°49' E 003°22'0 0.0
2018-Jul-09 15:18N 51°49' E 003°22'0 0.0
2018-Jul-09 15:00N 51°49' E 003°22'0 0.0
2018-Jul-09 14:30N 51°49' E 003°22'0 0.0
2018-Jul-09 14:00N 51°49' E 003°22'0 0.0
2018-Jul-09 13:30N 51°49' E 003°22'0 0.2
2018-Jul-09 13:00N 51°49' E 003°22'0 0.1
2018-Jul-09 12:30N 51°49' E 003°22'0 0.0
2018-Jul-09 12:00N 51°49' E 003°22'0 0.0
2018-Jul-09 11:30N 51°49' E 003°22'0 0.0
2018-Jul-09 10:57N 51°49' E 003°22'0 0.0
2018-Jul-09 10:27N 51°49' E 003°22'0 0.0
2018-Jul-09 10:00N 51°49' E 003°22'0 0.1
2018-Jul-09 09:15N 51°49' E 003°22'0 0.0
2018-Jul-09 08:57N 51°49' E 003°22'0 0.1
2018-Jul-09 08:18N 51°49' E 003°22'0 0.1
2018-Jul-09 07:18N 51°49' E 003°22'0 0.1
2018-Jul-09 07:00N 51°49' E 003°22'0 0.0
2018-Jul-09 06:21N 51°49' E 003°22'0 0.0
2018-Jul-09 05:48N 51°49' E 003°22'0 0.0
2018-Jul-09 05:30N 51°49' E 003°22'0 0.0
2018-Jul-09 05:00N 51°49' E 003°22'0 0.0
2018-Jul-09 04:21N 51°49' E 003°22'0 0.0
2018-Jul-09 03:54N 51°49' E 003°22'0 0.0
2018-Jul-09 03:30N 51°49' E 003°22'0 0.0
2018-Jul-09 03:00N 51°49' E 003°22'0 0.0
2018-Jul-09 02:27N 51°49' E 003°22'0 0.1
2018-Jul-09 01:51N 51°49' E 003°22'0 0.0
2018-Jul-09 01:30N 51°49' E 003°22'0 0.0
2018-Jul-09 00:51N 51°49' E 003°22'0 0.1
2018-Jul-09 00:24N 51°49' E 003°22'0 0.1
2018-Jul-09 00:00N 51°49' E 003°22'0 0.1
2018-Jul-08 23:30N 51°49' E 003°22'0 0.0
2018-Jul-08 23:00N 51°49' E 003°22'0 0.0
2018-Jul-08 22:30N 51°49' E 003°22'0 0.0
2018-Jul-08 22:00N 51°49' E 003°22'0 0.0
2018-Jul-08 21:30N 51°49' E 003°22'0 0.0
2018-Jul-08 21:00N 51°49' E 003°22'0 0.0
2018-Jul-08 20:27N 51°49' E 003°22'0 0.1
2018-Jul-08 20:00N 51°49' E 003°22'0 0.1
2018-Jul-08 19:30N 51°49' E 003°22'0 0.1
2018-Jul-08 19:00N 51°49' E 003°22'  
Track history (hours):
 
Tides and Currents Weather Stations Pressure Air Temp Water Temp Dewpoint Dewpoint Depression Visibility Wind Speed Wind Dir Waves Ship Positions

Paxi

Last reported at 2018-Jul-18 18:31 UTC. Time now 2018-Jul-18 18:36 UTC.
Position N 50°06' W 002°15'.

Length 170 m; draft 5.5 m.

Type: Cargo ship. MMSI: 255805905.

Date/timePositionNaut miles runAvg speedWind from/ knotsBaromVisibWave heightAir tempDewpointWater temp
2018-Jul-18 18:31N 50°06' W 002°15'815.1
2018-Jul-18 18:01N 50°08' W 002°04'815.3
2018-Jul-18 17:30N 50°10' W 001°52'714.9
2018-Jul-18 17:00N 50°12' W 001°41'714.3
2018-Jul-18 16:30N 50°14' W 001°30'713.6
2018-Jul-18 16:00N 50°16' W 001°20'612.9
2018-Jul-18 15:30N 50°18' W 001°10'611.9
2018-Jul-18 15:00N 50°19' W 001°01'510.9
2018-Jul-18 14:30N 50°21' W 000°53'10 9.5
2018-Jul-18 13:29N 50°23' W 000°38'4 9.1
2018-Jul-18 13:00N 50°25' W 000°32'5 9.1
2018-Jul-18 12:30N 50°26' W 000°25'5 9.5
2018-Jul-18 12:00N 50°27' W 000°17'510.0
2018-Jul-18 11:30N 50°28' W 000°10'1110.8
2018-Jul-18 10:27N 50°31' E 000°07'511.7
2018-Jul-18 10:00N 50°33' E 000°15'612.4
2018-Jul-18 09:30N 50°34' E 000°24'613.0
2018-Jul-18 09:00N 50°36' E 000°34'713.1
2018-Jul-18 08:30N 50°40' E 000°42'713.2
2018-Jul-18 08:00N 50°44' E 000°50'612.7
2018-Jul-18 07:30N 50°48' E 000°58'612.2
2018-Jul-18 07:00N 50°52' E 001°06'611.8
2018-Jul-18 06:30N 50°56' E 001°13'611.1
2018-Jul-18 06:00N 50°60' E 001°19'510.2
2018-Jul-18 05:30N 51°03' E 001°26'5 9.4
2018-Jul-18 05:00N 51°06' E 001°31'4 8.4
2018-Jul-18 04:30N 51°08' E 001°37'4 8.5
2018-Jul-18 04:00N 51°11' E 001°42'5 9.0
2018-Jul-18 03:30N 51°15' E 001°46'5 9.7
2018-Jul-18 03:00N 51°19' E 001°50'510.6
2018-Jul-18 02:30N 51°23' E 001°54'611.4
2018-Jul-18 02:00N 51°28' E 002°00'612.3
2018-Jul-18 01:30N 51°32' E 002°07'712.9
2018-Jul-18 01:00N 51°37' E 002°14'713.5
2018-Jul-18 00:30N 51°42' E 002°22'713.4
2018-Jul-17 23:59N 51°46' E 002°30'511.3
2018-Jul-17 23:30N 51°48' E 002°39'611.7
2018-Jul-17 23:00N 51°47' E 002°48'612.2
2018-Jul-17 22:30N 51°48' E 002°57'612.1
2018-Jul-17 22:00N 51°50' E 003°07'510.3
2018-Jul-17 21:30N 51°48' E 003°14'510.6
2018-Jul-17 21:00N 51°49' E 003°22'1 1.7
2018-Jul-17 20:25N 51°49' E 003°24'0 0.0
2018-Jul-17 19:58N 51°49' E 003°24'0 0.0
2018-Jul-17 19:28N 51°49' E 003°24'0 0.0
2018-Jul-17 18:58N 51°49' E 003°24'0 0.0
2018-Jul-17 18:28N 51°49' E 003°24'0 0.0
2018-Jul-17 17:58N 51°49' E 003°24'0 0.0
2018-Jul-17 17:22N 51°49' E 003°24'0 0.0
2018-Jul-17 16:58N 51°49' E 003°24'0 0.0
2018-Jul-17 16:16N 51°49' E 003°24'0 0.0
2018-Jul-17 15:55N 51°49' E 003°24'0 0.0
2018-Jul-17 15:28N 51°49' E 003°24'0 0.0
2018-Jul-17 14:58N 51°49' E 003°24'0 0.1
2018-Jul-17 14:16N 51°49' E 003°24'0 0.2
2018-Jul-17 13:58N 51°49' E 003°24'0 0.1
2018-Jul-17 12:52N 51°49' E 003°24'0 0.0
2018-Jul-17 12:16N 51°49' E 003°24'0 0.0
2018-Jul-17 11:58N 51°49' E 003°23'0 0.0
2018-Jul-17 11:25N 51°49' E 003°23'0 0.1
2018-Jul-17 10:22N 51°49' E 003°24'0 0.2
2018-Jul-17 09:58N 51°49' E 003°24'0 0.0
2018-Jul-17 07:10N 51°49' E 003°24'0 0.0
2018-Jul-17 06:52N 51°49' E 003°24'0 0.0
2018-Jul-17 06:28N 51°49' E 003°24'0 0.0
2018-Jul-17 05:55N 51°49' E 003°24'0 0.0
2018-Jul-17 05:22N 51°49' E 003°24'0 0.0
2018-Jul-17 03:10N 51°49' E 003°24'0 0.0
2018-Jul-17 02:43N 51°49' E 003°24'0 0.2
2018-Jul-17 02:16N 51°49' E 003°24'0 0.5
2018-Jul-17 01:58N 51°49' E 003°23'0 0.0
2018-Jul-17 01:25N 51°49' E 003°23'0 0.0
2018-Jul-17 00:58N 51°49' E 003°23'0 0.0
2018-Jul-17 00:10N 51°49' E 003°23'0 0.0
2018-Jul-16 23:22N 51°49' E 003°23'0 0.0
2018-Jul-16 22:55N 51°49' E 003°23'0 0.0
2018-Jul-16 22:28N 51°49' E 003°23'0 0.0
2018-Jul-16 21:58N 51°49' E 003°23'0 0.1
2018-Jul-16 21:13N 51°49' E 003°23'0 0.1
2018-Jul-16 20:55N 51°49' E 003°23'0 0.0
2018-Jul-16 20:22N 51°49' E 003°24'0 0.0
2018-Jul-16 19:58N 51°49' E 003°24'0 0.0
2018-Jul-16 19:28N 51°49' E 003°24'0 0.0
2018-Jul-16 18:55N 51°49' E 003°24'0 0.0
2018-Jul-16 18:25N 51°49' E 003°24'0 0.0
2018-Jul-16 17:55N 51°49' E 003°24'0 0.0
2018-Jul-16 17:28N 51°49' E 003°24'0 0.0
2018-Jul-16 16:55N 51°49' E 003°24'0 0.0
2018-Jul-16 16:28N 51°49' E 003°24'0 0.0
2018-Jul-16 15:58N 51°49' E 003°24'0 0.0
2018-Jul-16 15:28N 51°49' E 003°24'0 0.0
2018-Jul-16 14:52N 51°49' E 003°24'0 0.2
2018-Jul-16 14:22N 51°49' E 003°24'0 0.2
2018-Jul-16 13:58N 51°49' E 003°24'0 0.0
2018-Jul-16 13:25N 51°49' E 003°23'0 0.0
2018-Jul-16 12:58N 51°49' E 003°23'0 0.0
2018-Jul-16 12:28N 51°49' E 003°23'0 0.0
2018-Jul-16 11:55N 51°49' E 003°23'0 0.0
2018-Jul-16 11:28N 51°49' E 003°23'0 0.0
2018-Jul-16 10:58N 51°49' E 003°23'0 0.0
2018-Jul-16 10:28N 51°49' E 003°23'0 0.0
2018-Jul-16 07:28N 51°49' E 003°23'0 0.1
2018-Jul-16 06:52N 51°49' E 003°24'0 0.1
2018-Jul-16 06:28N 51°49' E 003°24'0 0.0
2018-Jul-16 05:55N 51°49' E 003°24'0 0.0
2018-Jul-16 05:28N 51°49' E 003°24'0 0.0
2018-Jul-16 04:58N 51°49' E 003°24'0 0.0
2018-Jul-16 04:28N 51°49' E 003°24'0 0.0
2018-Jul-16 03:58N 51°49' E 003°24'0 0.0
2018-Jul-16 03:28N 51°49' E 003°24'0 0.0
2018-Jul-16 02:58N 51°49' E 003°24'0 0.0
2018-Jul-16 02:28N 51°49' E 003°24'0 0.1
2018-Jul-16 01:58N 51°49' E 003°24'0 0.2
2018-Jul-16 01:28N 51°49' E 003°24'0 0.0
2018-Jul-16 00:55N 51°49' E 003°24'0 0.0
2018-Jul-16 00:28N 51°49' E 003°23'0 0.0
2018-Jul-15 23:52N 51°49' E 003°23'0 0.0
2018-Jul-15 23:13N 51°49' E 003°23'0 0.0
2018-Jul-15 22:58N 51°49' E 003°23'0 0.0
2018-Jul-15 22:25N 51°49' E 003°23'0 0.0
2018-Jul-15 21:46N 51°49' E 003°23'0 0.0
2018-Jul-15 21:22N 51°49' E 003°23'0 0.0
2018-Jul-15 20:37N 51°49' E 003°23'0 0.0
2018-Jul-15 20:25N 51°49' E 003°23'0 0.0
2018-Jul-15 19:55N 51°49' E 003°23'0 0.1
2018-Jul-15 19:28N 51°49' E 003°23'0 0.1
2018-Jul-15 18:58N 51°49' E 003°23'0 0.1
2018-Jul-15 18:28N 51°49' E 003°24'0 0.0
2018-Jul-15 17:58N 51°49' E 003°24'0 0.0
2018-Jul-15 17:28N 51°49' E 003°24'0 0.0
2018-Jul-15 16:58N 51°49' E 003°24'0 0.0
2018-Jul-15 16:28N 51°49' E 003°24'0 0.0
2018-Jul-15 15:58N 51°49' E 003°24'0 0.0
2018-Jul-15 15:25N 51°49' E 003°24'0 0.0
2018-Jul-15 14:58N 51°49' E 003°24'0 0.0
2018-Jul-15 14:25N 51°49' E 003°24'0 0.1
2018-Jul-15 13:58N 51°49' E 003°24'0 0.3
2018-Jul-15 13:28N 51°49' E 003°24'0 0.1
2018-Jul-15 12:43N 51°49' E 003°23'0 0.0
2018-Jul-15 12:19N 51°49' E 003°23'0 0.0
2018-Jul-15 11:58N 51°49' E 003°23'0 0.0
2018-Jul-15 11:28N 51°49' E 003°23'0 0.0
2018-Jul-15 10:58N 51°49' E 003°23'0 0.0
2018-Jul-15 10:28N 51°49' E 003°23'0 0.0
2018-Jul-15 09:58N 51°49' E 003°23'0 0.0
2018-Jul-15 09:28N 51°49' E 003°23'0 0.0
2018-Jul-15 08:58N 51°49' E 003°23'0 0.0
2018-Jul-15 08:28N 51°49' E 003°23'0 0.0
2018-Jul-15 07:58N 51°49' E 003°23'0 0.0
2018-Jul-15 07:28N 51°49' E 003°23'0 0.1
2018-Jul-15 06:58N 51°49' E 003°23'0 0.1
2018-Jul-15 06:28N 51°49' E 003°23'0 0.1
2018-Jul-15 05:58N 51°49' E 003°23'0 0.1
2018-Jul-15 05:28N 51°49' E 003°24'0 0.0
2018-Jul-15 04:58N 51°49' E 003°24'0 0.0
2018-Jul-15 04:25N 51°49' E 003°24'0 0.0
2018-Jul-15 03:58N 51°49' E 003°24'0 0.0
2018-Jul-15 03:25N 51°49' E 003°24'0 0.0
2018-Jul-15 02:58N 51°49' E 003°24'0 0.0
2018-Jul-15 02:28N 51°49' E 003°24'0 0.0
2018-Jul-15 01:55N 51°49' E 003°24'0 0.1
2018-Jul-15 01:28N 51°49' E 003°24'0 0.3
2018-Jul-15 00:46N 51°49' E 003°23'0 0.1
2018-Jul-15 00:25N 51°49' E 003°23'0 0.0
2018-Jul-14 23:58N 51°49' E 003°23'0 0.0
2018-Jul-14 23:19N 51°49' E 003°23'0 0.0
2018-Jul-14 22:58N 51°49' E 003°23'0 0.0
2018-Jul-14 22:22N 51°49' E 003°23'0 0.0
2018-Jul-14 21:58N 51°49' E 003°23'0 0.0
2018-Jul-14 21:22N 51°49' E 003°23'0 0.0
2018-Jul-14 20:58N 51°49' E 003°23'0 0.0
2018-Jul-14 20:28N 51°49' E 003°23'0 0.0
2018-Jul-14 19:58N 51°49' E 003°23'0 0.0
2018-Jul-14 19:28N 51°49' E 003°23'0 0.0
2018-Jul-14 18:58N 51°49' E 003°23'0 0.1
2018-Jul-14 18:28N 51°49' E 003°23'0 0.1
2018-Jul-14 17:58N 51°49' E 003°23'0 0.1
2018-Jul-14 17:28N 51°49' E 003°23'0 0.2
2018-Jul-14 16:58N 51°49' E 003°24'0 0.0
2018-Jul-14 16:28N 51°49' E 003°24'0 0.0
2018-Jul-14 15:59N 51°49' E 003°24'0 0.0
2018-Jul-14 15:25N 51°49' E 003°24'0 0.0
2018-Jul-14 14:55N 51°49' E 003°24'0 0.0
2018-Jul-14 14:28N 51°49' E 003°24'0 0.0
2018-Jul-14 13:28N 51°49' E 003°24'0 0.2
2018-Jul-14 12:58N 51°49' E 003°24'0 0.1
2018-Jul-14 12:28N 51°49' E 003°24'0 0.0
2018-Jul-14 11:55N 51°49' E 003°23'0 0.0
2018-Jul-14 11:28N 51°49' E 003°23'0 0.0
2018-Jul-14 10:52N 51°49' E 003°23'0 0.0
2018-Jul-14 10:19N 51°49' E 003°23'0 0.0
2018-Jul-14 09:58N 51°49' E 003°23'0 0.0
2018-Jul-14 09:28N 51°49' E 003°23'0 0.0
2018-Jul-14 08:58N 51°49' E 003°23'0 0.0
2018-Jul-14 08:19N 51°49' E 003°23'0 0.1
2018-Jul-14 07:55N 51°49' E 003°23'0 0.0
2018-Jul-14 06:52N 51°49' E 003°23'0 0.1
2018-Jul-14 06:01N 51°49' E 003°23'0 0.1
2018-Jul-14 05:31N 51°49' E 003°23'0 0.1
2018-Jul-14 05:22N 51°49' E 003°23'0 0.1
2018-Jul-14 04:55N 51°49' E 003°23'0 0.1
2018-Jul-14 04:28N 51°49' E 003°23'0 0.1
2018-Jul-14 03:58N 51°49' E 003°24'0 0.0
2018-Jul-14 03:28N 51°49' E 003°24'0 0.0
2018-Jul-14 02:55N 51°49' E 003°24'0 0.0
2018-Jul-14 02:13N 51°49' E 003°24'0 0.0
2018-Jul-14 01:52N 51°49' E 003°24'0 0.0
2018-Jul-14 01:22N 51°49' E 003°24'0 0.1
2018-Jul-14 00:55N 51°49' E 003°24'0 0.2
2018-Jul-14 00:10N 51°49' E 003°24'0 0.1
2018-Jul-13 23:58N 51°49' E 003°24'0 0.0
2018-Jul-13 23:25N 51°49' E 003°23'0 0.0
2018-Jul-13 22:10N 51°49' E 003°23'0 0.0
2018-Jul-13 21:58N 51°49' E 003°23'0 0.0
2018-Jul-13 21:25N 51°49' E 003°23'0 0.0
2018-Jul-13 20:52N 51°49' E 003°23'0 0.0
2018-Jul-13 20:28N 51°49' E 003°23'0 0.1
2018-Jul-13 19:50N 51°49' E 003°23'1 1.8
2018-Jul-13 19:31N 51°49' E 003°23'3 5.6
2018-Jul-13 19:00N 51°47' E 003°19'4 8.8
2018-Jul-13 18:30N 51°43' E 003°16'611.0
2018-Jul-13 18:00N 51°39' E 003°21'612.3
2018-Jul-13 17:30N 51°33' E 003°25'612.1
2018-Jul-13 17:00N 51°28' E 003°31'510.9
2018-Jul-13 16:31N 51°27' E 003°39'510.4
2018-Jul-13 16:00N 51°24' E 003°46'0 0.9
2018-Jul-13 15:29N 51°23' E 003°46'0 0.2
2018-Jul-13 14:59N 51°23' E 003°46'0 0.1
2018-Jul-13 13:59N 51°23' E 003°47'0 0.0
2018-Jul-13 13:29N 51°23' E 003°47'0 0.0
2018-Jul-13 12:59N 51°23' E 003°47'0 0.0
2018-Jul-13 12:29N 51°23' E 003°47'0 0.0
2018-Jul-13 11:59N 51°23' E 003°47'0 0.0
2018-Jul-13 11:29N 51°23' E 003°47'0 0.0
2018-Jul-13 10:59N 51°23' E 003°47'0 0.0
2018-Jul-13 10:29N 51°23' E 003°47'0 0.0
2018-Jul-13 09:59N 51°23' E 003°47'0 0.0
2018-Jul-13 09:29N 51°23' E 003°47'0 0.0
2018-Jul-13 08:59N 51°23' E 003°47'0 0.2
2018-Jul-13 08:29N 51°23' E 003°46'0 0.2
2018-Jul-13 07:59N 51°23' E 003°46'0 0.0
2018-Jul-13 07:29N 51°23' E 003°46'0 0.0
2018-Jul-13 06:59N 51°23' E 003°46'0 0.0
2018-Jul-13 06:29N 51°23' E 003°46'0 0.0
2018-Jul-13 05:59N 51°23' E 003°46'0 0.0
2018-Jul-13 05:29N 51°23' E 003°46'0 0.0
2018-Jul-13 04:59N 51°23' E 003°46'0 0.0
2018-Jul-13 04:29N 51°23' E 003°46'0 0.0
2018-Jul-13 03:59N 51°23' E 003°46'0 0.0
2018-Jul-13 03:29N 51°23' E 003°46'0 0.0
2018-Jul-13 02:59N 51°23' E 003°46'0 0.1
2018-Jul-13 02:29N 51°23' E 003°46'0 0.2
2018-Jul-13 01:59N 51°23' E 003°47'0 0.1
2018-Jul-13 01:29N 51°23' E 003°47'0 0.0
2018-Jul-13 00:59N 51°23' E 003°47'0 0.0
2018-Jul-13 00:29N 51°23' E 003°47'0 0.0
2018-Jul-12 23:59N 51°23' E 003°47'0 0.0
2018-Jul-12 23:29N 51°23' E 003°47'0 0.0
2018-Jul-12 22:59N 51°23' E 003°47'0 0.0
2018-Jul-12 22:29N 51°23' E 003°47'0 0.0
2018-Jul-12 21:59N 51°23' E 003°47'0 0.0
2018-Jul-12 21:29N 51°23' E 003°47'0 0.0
2018-Jul-12 20:59N 51°23' E 003°47'0 0.0
2018-Jul-12 20:29N 51°23' E 003°47'0 0.1
2018-Jul-12 19:59N 51°23' E 003°46'0 0.1
2018-Jul-12 19:29N 51°23' E 003°46'0 0.1
2018-Jul-12 18:59N 51°23' E 003°46'0 0.0
2018-Jul-12 18:29N 51°23' E 003°46'0 0.0
2018-Jul-12 17:59N 51°23' E 003°46'0 0.0
2018-Jul-12 17:29N 51°23' E 003°46'0 0.0
2018-Jul-12 16:59N 51°23' E 003°46'0 0.0
2018-Jul-12 16:29N 51°23' E 003°46'0 0.0
2018-Jul-12 15:59N 51°23' E 003°46'0 0.0
2018-Jul-12 15:29N 51°23' E 003°46'0 0.0
2018-Jul-12 14:59N 51°23' E 003°46'0 0.0
2018-Jul-12 14:29N 51°23' E 003°46'0 0.0
2018-Jul-12 14:00N 51°23' E 003°46'2 3.4
2018-Jul-12 13:30N 51°24' E 003°44'3 5.7
2018-Jul-12 13:00N 51°26' E 003°41'4 7.3
2018-Jul-12 12:30N 51°26' E 003°35'4 8.2
2018-Jul-12 12:00N 51°29' E 003°30'4 8.6
2018-Jul-12 11:30N 51°32' E 003°25'4 7.1
2018-Jul-12 11:00N 51°35' E 003°23'4 7.8
2018-Jul-12 10:30N 51°39' E 003°20'3 6.9
2018-Jul-12 10:00N 51°42' E 003°17'511.0
2018-Jul-12 09:30N 51°47' E 003°14'2 4.7
2018-Jul-12 09:00N 51°48' E 003°17'3 6.0
2018-Jul-12 08:30N 51°49' E 003°22'0 0.6
2018-Jul-12 08:00N 51°49' E 003°22'0 0.0
2018-Jul-12 07:27N 51°49' E 003°22'0 0.0
2018-Jul-12 06:57N 51°49' E 003°22'0 0.0
2018-Jul-12 06:27N 51°49' E 003°22'0 0.0
2018-Jul-12 06:00N 51°49' E 003°22'0 0.0
2018-Jul-12 05:30N 51°49' E 003°22'0 0.0
2018-Jul-12 05:00N 51°49' E 003°22'0 0.0
2018-Jul-12 04:30N 51°49' E 003°22'0 0.0
2018-Jul-12 03:42N 51°49' E 003°22'0 0.1
2018-Jul-12 03:30N 51°49' E 003°22'0 0.2
2018-Jul-12 02:54N 51°49' E 003°22'0 0.0
2018-Jul-11 23:54N 51°49' E 003°22'0 0.1
2018-Jul-11 23:30N 51°49' E 003°22'0 0.1
2018-Jul-11 23:00N 51°49' E 003°22'0 0.1
2018-Jul-11 22:30N 51°49' E 003°22'0 0.0
2018-Jul-11 22:00N 51°49' E 003°22'0 0.0
2018-Jul-11 21:27N 51°49' E 003°22'0 0.0
2018-Jul-11 20:54N 51°49' E 003°22'0 0.0
2018-Jul-11 20:30N 51°49' E 003°22'0 0.0
2018-Jul-11 20:00N 51°49' E 003°22'0 0.0
2018-Jul-11 19:30N 51°49' E 003°22'0 0.0
2018-Jul-11 19:00N 51°49' E 003°22'0 0.0
2018-Jul-11 18:30N 51°49' E 003°22'0 0.0
2018-Jul-11 18:00N 51°49' E 003°22'0 0.0
2018-Jul-11 17:30N 51°49' E 003°22'0 0.0
2018-Jul-11 17:00N 51°49' E 003°22'0 0.0
2018-Jul-11 16:30N 51°49' E 003°22'0 0.0
2018-Jul-11 16:00N 51°49' E 003°22'0 0.0
2018-Jul-11 15:30N 51°49' E 003°22'0 0.0
2018-Jul-11 15:00N 51°49' E 003°22'0 0.1
2018-Jul-11 14:24N 51°49' E 003°22'0 0.1
2018-Jul-11 14:00N 51°49' E 003°22'0 0.1
2018-Jul-11 13:30N 51°49' E 003°22'0 0.0
2018-Jul-11 12:57N 51°49' E 003°22'0 0.0
2018-Jul-11 12:06N 51°49' E 003°22'0 0.0
2018-Jul-11 11:57N 51°49' E 003°22'0 0.0
2018-Jul-11 11:27N 51°49' E 003°22'0 0.1
2018-Jul-11 11:00N 51°49' E 003°22'0 0.1
2018-Jul-11 10:15N 51°49' E 003°22'0 0.1
2018-Jul-11 09:03N 51°49' E 003°22'0 0.2
2018-Jul-11 09:00N 51°49' E 003°22'0 0.0
2018-Jul-11 08:12N 51°49' E 003°22'0 0.0
2018-Jul-11 07:57N 51°49' E 003°22'0 0.0
2018-Jul-11 07:12N 51°49' E 003°22'0 0.0
2018-Jul-11 05:45N 51°49' E 003°22'0 0.0
2018-Jul-11 05:27N 51°49' E 003°22'0 0.0
2018-Jul-11 05:00N 51°49' E 003°22'0 0.0
2018-Jul-11 04:27N 51°49' E 003°22'0 0.0
2018-Jul-11 03:15N 51°49' E 003°22'0 0.0
2018-Jul-11 02:54N 51°49' E 003°22'0 0.1
2018-Jul-11 02:12N 51°49' E 003°22'0 0.0
2018-Jul-11 01:48N 51°49' E 003°22'0 0.0
2018-Jul-11 01:30N 51°49' E 003°22'0 0.0
2018-Jul-11 00:00N 51°49' E 003°22'0 0.0
2018-Jul-10 23:24N 51°49' E 003°22'0 0.0
2018-Jul-10 22:57N 51°49' E 003°22'0 0.0
2018-Jul-10 20:48N 51°49' E 003°22'0 0.0
2018-Jul-10 20:24N 51°49' E 003°22'0 0.1
2018-Jul-10 19:57N 51°49' E 003°22'0 0.0
2018-Jul-10 18:18N 51°49' E 003°22'0 0.0
2018-Jul-10 17:57N 51°49' E 003°22'0 0.0
2018-Jul-10 16:24N 51°49' E 003°22'0 0.0
2018-Jul-10 15:42N 51°49' E 003°22'0 0.1
2018-Jul-10 15:30N 51°49' E 003°22'0 0.0
2018-Jul-10 14:09N 51°49' E 003°22'0 0.2
2018-Jul-10 14:00N 51°49' E 003°22'0 0.0
2018-Jul-10 12:12N 51°49' E 003°22'0 0.0
2018-Jul-10 11:54N 51°49' E 003°22'0 0.0
2018-Jul-10 11:27N 51°49' E 003°22'0 0.0
2018-Jul-10 11:00N 51°49' E 003°22'0 0.0
2018-Jul-10 09:57N 51°49' E 003°22'0 0.1
2018-Jul-10 07:57N 51°49' E 003°22'0 0.0
2018-Jul-10 07:18N 51°49' E 003°22'0 0.0
2018-Jul-10 06:51N 51°49' E 003°22'0 0.0
2018-Jul-10 06:03N 51°49' E 003°22'0 0.1
2018-Jul-10 05:57N 51°49' E 003°22'0 0.0
2018-Jul-10 05:30N 51°49' E 003°22'0 0.0
2018-Jul-10 04:54N 51°49' E 003°22'0 0.0
2018-Jul-10 04:27N 51°49' E 003°22'0 0.0
2018-Jul-10 03:51N 51°49' E 003°22'0 0.0
2018-Jul-10 03:30N 51°49' E 003°22'0 0.0
2018-Jul-10 02:30N 51°49' E 003°22'0 0.0
2018-Jul-10 01:51N 51°49' E 003°22'0 0.1
2018-Jul-10 01:27N 51°49' E 003°22'0 0.0
2018-Jul-10 00:24N 51°49' E 003°22'0 0.0
2018-Jul-10 00:00N 51°49' E 003°22'0 0.1
2018-Jul-09 23:18N 51°49' E 003°22'0 0.0
2018-Jul-09 22:54N 51°49' E 003°22'0 0.0
2018-Jul-09 22:27N 51°49' E 003°22'0 0.0
2018-Jul-09 20:36N 51°49' E 003°22'0 0.2
2018-Jul-09 20:30N 51°49' E 003°22'0 0.0
2018-Jul-09 16:54N 51°49' E 003°22'0 0.0
2018-Jul-09 16:24N 51°49' E 003°22'0 0.0
2018-Jul-09 15:57N 51°49' E 003°22'0 0.0
2018-Jul-09 15:18N 51°49' E 003°22'0 0.0
2018-Jul-09 15:00N 51°49' E 003°22'0 0.0
2018-Jul-09 14:30N 51°49' E 003°22'0 0.0
2018-Jul-09 14:00N 51°49' E 003°22'0 0.0
2018-Jul-09 13:30N 51°49' E 003°22'0 0.2
2018-Jul-09 13:00N 51°49' E 003°22'0 0.1
2018-Jul-09 12:30N 51°49' E 003°22'0 0.0
2018-Jul-09 12:00N 51°49' E 003°22'0 0.0
2018-Jul-09 11:30N 51°49' E 003°22'0 0.0
2018-Jul-09 10:57N 51°49' E 003°22'0 0.0
2018-Jul-09 10:27N 51°49' E 003°22'0 0.0
2018-Jul-09 10:00N 51°49' E 003°22'0 0.1
2018-Jul-09 09:15N 51°49' E 003°22'0 0.0
2018-Jul-09 08:57N 51°49' E 003°22'0 0.1
2018-Jul-09 08:18N 51°49' E 003°22'0 0.1
2018-Jul-09 07:18N 51°49' E 003°22'0 0.1
2018-Jul-09 07:00N 51°49' E 003°22'0 0.0
2018-Jul-09 06:21N 51°49' E 003°22'0 0.0
2018-Jul-09 05:48N 51°49' E 003°22'0 0.0
2018-Jul-09 05:30N 51°49' E 003°22'0 0.0
2018-Jul-09 05:00N 51°49' E 003°22'0 0.0
2018-Jul-09 04:21N 51°49' E 003°22'0 0.0
2018-Jul-09 03:54N 51°49' E 003°22'0 0.0
2018-Jul-09 03:30N 51°49' E 003°22'0 0.0
2018-Jul-09 03:00N 51°49' E 003°22'0 0.0
2018-Jul-09 02:27N 51°49' E 003°22'0 0.1
2018-Jul-09 01:51N 51°49' E 003°22'0 0.0
2018-Jul-09 01:30N 51°49' E 003°22'0 0.0
2018-Jul-09 00:51N 51°49' E 003°22'0 0.1
2018-Jul-09 00:24N 51°49' E 003°22'0 0.1
2018-Jul-09 00:00N 51°49' E 003°22'0 0.1
2018-Jul-08 23:30N 51°49' E 003°22'0 0.0
2018-Jul-08 23:00N 51°49' E 003°22'0 0.0
2018-Jul-08 22:30N 51°49' E 003°22'0 0.0
2018-Jul-08 22:00N 51°49' E 003°22'0 0.0
2018-Jul-08 21:30N 51°49' E 003°22'0 0.0
2018-Jul-08 21:00N 51°49' E 003°22'0 0.0
2018-Jul-08 20:27N 51°49' E 003°22'0 0.1
2018-Jul-08 20:00N 51°49' E 003°22'0 0.1
2018-Jul-08 19:30N 51°49' E 003°22'0 0.1
2018-Jul-08 19:00N 51°49' E 003°22'  

Dump ship's entire track history